sensor_id;sensor_type;location;lat;lon;timestamp;pressure;altitude;pressure_sealevel;temperature;humidity
10261;BME280;5175;42.606;23.388;2022-09-03T00:02:04;93748.84;;;17.11;74.25
10261;BME280;5175;42.606;23.388;2022-09-03T00:04:38;93752.31;;;17.03;72.81
10261;BME280;5175;42.606;23.388;2022-09-03T00:07:16;93761.22;;;17.20;73.47
10261;BME280;5175;42.606;23.388;2022-09-03T00:09:48;93759.63;;;17.11;70.96
10261;BME280;5175;42.606;23.388;2022-09-03T00:12:20;93740.63;;;16.99;74.76
10261;BME280;5175;42.606;23.388;2022-09-03T00:14:52;93761.25;;;16.95;69.12
10261;BME280;5175;42.606;23.388;2022-09-03T00:17:24;93760.41;;;17.03;67.66
10261;BME280;5175;42.606;23.388;2022-09-03T00:19:55;93757.41;;;17.04;74.47
10261;BME280;5175;42.606;23.388;2022-09-03T00:22:28;93760.28;;;16.99;69.48
10261;BME280;5175;42.606;23.388;2022-09-03T00:24:57;93757.72;;;17.11;71.05
10261;BME280;5175;42.606;23.388;2022-09-03T00:27:27;93768.34;;;17.08;72.89
10261;BME280;5175;42.606;23.388;2022-09-03T00:29:58;93763.75;;;17.08;70.52
10261;BME280;5175;42.606;23.388;2022-09-03T00:32:36;93765.03;;;16.94;68.13
10261;BME280;5175;42.606;23.388;2022-09-03T00:35:10;93754.41;;;16.97;74.88
10261;BME280;5175;42.606;23.388;2022-09-03T00:37:42;93750.13;;;17.05;73.73
10261;BME280;5175;42.606;23.388;2022-09-03T00:40:15;93752.16;;;17.08;74.66
10261;BME280;5175;42.606;23.388;2022-09-03T00:42:46;93756.31;;;16.97;73.51
10261;BME280;5175;42.606;23.388;2022-09-03T00:45:27;93748.38;;;17.00;73.11
10261;BME280;5175;42.606;23.388;2022-09-03T00:48:07;93757.75;;;16.94;66.95
10261;BME280;5175;42.606;23.388;2022-09-03T00:50:45;93755.84;;;16.95;68.73
10261;BME280;5175;42.606;23.388;2022-09-03T00:53:25;93754.25;;;17.02;69.10
10261;BME280;5175;42.606;23.388;2022-09-03T00:55:59;93759.16;;;17.09;73.31
10261;BME280;5175;42.606;23.388;2022-09-03T00:58:46;93757.41;;;17.04;72.64
10261;BME280;5175;42.606;23.388;2022-09-03T01:01:20;93763.13;;;16.94;74.19
10261;BME280;5175;42.606;23.388;2022-09-03T01:03:56;93766.31;;;16.96;69.63
10261;BME280;5175;42.606;23.388;2022-09-03T01:06:36;93763.44;;;17.01;65.92
10261;BME280;5175;42.606;23.388;2022-09-03T01:09:18;93761.69;;;17.05;71.92
10261;BME280;5175;42.606;23.388;2022-09-03T01:11:56;93762.19;;;17.07;70.79
10261;BME280;5175;42.606;23.388;2022-09-03T01:14:33;93750.59;;;17.15;72.27
10261;BME280;5175;42.606;23.388;2022-09-03T01:17:10;93737.25;;;17.10;69.34
10261;BME280;5175;42.606;23.388;2022-09-03T01:20:04;93751.66;;;17.31;72.42
10261;BME280;5175;42.606;23.388;2022-09-03T01:25:53;93757.06;;;17.31;75.62
10261;BME280;5175;42.606;23.388;2022-09-03T01:28:36;93763.91;;;17.20;73.36
10261;BME280;5175;42.606;23.388;2022-09-03T01:31:15;93759.75;;;17.40;77.06
10261;BME280;5175;42.606;23.388;2022-09-03T01:33:51;93764.09;;;17.15;73.78
10261;BME280;5175;42.606;23.388;2022-09-03T01:36:23;93781.69;;;17.04;73.83
10261;BME280;5175;42.606;23.388;2022-09-03T01:38:57;93769.63;;;17.02;73.38
10261;BME280;5175;42.606;23.388;2022-09-03T01:41:34;93772.81;;;17.12;75.36
10261;BME280;5175;42.606;23.388;2022-09-03T01:44:30;93766.63;;;16.77;74.58
10261;BME280;5175;42.606;23.388;2022-09-03T01:47:10;93772.16;;;16.64;71.44
10261;BME280;5175;42.606;23.388;2022-09-03T01:49:47;93778.66;;;16.63;70.08
10261;BME280;5175;42.606;23.388;2022-09-03T01:52:21;93773.59;;;16.61;70.96
10261;BME280;5175;42.606;23.388;2022-09-03T01:55:01;93773.06;;;16.42;69.69
10261;BME280;5175;42.606;23.388;2022-09-03T01:57:44;93754.97;;;16.34;68.98
10261;BME280;5175;42.606;23.388;2022-09-03T02:00:16;93766.94;;;16.59;70.20
10261;BME280;5175;42.606;23.388;2022-09-03T02:02:46;93755.78;;;16.52;69.99
10261;BME280;5175;42.606;23.388;2022-09-03T02:05:17;93773.59;;;16.61;71.26
10261;BME280;5175;42.606;23.388;2022-09-03T02:07:45;93769.00;;;16.53;68.86
10261;BME280;5175;42.606;23.388;2022-09-03T02:10:14;93758.69;;;16.55;69.70
10261;BME280;5175;42.606;23.388;2022-09-03T02:12:46;93761.38;;;16.55;73.85
10261;BME280;5175;42.606;23.388;2022-09-03T02:15:16;93760.84;;;16.45;70.30
10261;BME280;5175;42.606;23.388;2022-09-03T02:17:46;93771.31;;;16.46;69.64
10261;BME280;5175;42.606;23.388;2022-09-03T02:20:16;93775.94;;;16.54;69.79
10261;BME280;5175;42.606;23.388;2022-09-03T02:22:46;93787.22;;;16.73;75.03
10261;BME280;5175;42.606;23.388;2022-09-03T02:25:14;93784.84;;;16.63;72.78
10261;BME280;5175;42.606;23.388;2022-09-03T02:27:41;93788.00;;;16.57;72.92
10261;BME280;5175;42.606;23.388;2022-09-03T02:30:09;93786.13;;;16.66;73.32
10261;BME280;5175;42.606;23.388;2022-09-03T02:32:38;93787.03;;;16.53;72.45
10261;BME280;5175;42.606;23.388;2022-09-03T02:35:06;93781.03;;;16.56;72.95
10261;BME280;5175;42.606;23.388;2022-09-03T02:37:33;93787.97;;;16.48;71.99
10261;BME280;5175;42.606;23.388;2022-09-03T02:40:00;93786.50;;;16.34;71.86
10261;BME280;5175;42.606;23.388;2022-09-03T02:42:31;93778.28;;;16.47;71.09
10261;BME280;5175;42.606;23.388;2022-09-03T02:45:04;93745.47;;;16.37;71.99
10261;BME280;5175;42.606;23.388;2022-09-03T02:47:34;93788.50;;;16.76;77.23
10261;BME280;5175;42.606;23.388;2022-09-03T02:50:05;93775.63;;;16.64;76.47
10261;BME280;5175;42.606;23.388;2022-09-03T02:52:32;93785.91;;;16.54;72.31
10261;BME280;5175;42.606;23.388;2022-09-03T02:54:59;93792.22;;;16.41;71.83
10261;BME280;5175;42.606;23.388;2022-09-03T02:57:25;93796.72;;;16.62;67.90
10261;BME280;5175;42.606;23.388;2022-09-03T02:59:53;93802.13;;;16.79;75.84
10261;BME280;5175;42.606;23.388;2022-09-03T03:02:20;93801.00;;;16.72;77.11
10261;BME280;5175;42.606;23.388;2022-09-03T03:04:46;93806.88;;;16.74;67.83
10261;BME280;5175;42.606;23.388;2022-09-03T03:07:15;93809.75;;;16.86;73.51
10261;BME280;5175;42.606;23.388;2022-09-03T03:09:41;93795.16;;;16.78;78.09
10261;BME280;5175;42.606;23.388;2022-09-03T03:12:08;93802.41;;;16.69;72.69
10261;BME280;5175;42.606;23.388;2022-09-03T03:14:35;93803.38;;;16.82;75.10
10261;BME280;5175;42.606;23.388;2022-09-03T03:17:02;93802.75;;;16.68;72.33
10261;BME280;5175;42.606;23.388;2022-09-03T03:19:29;93803.38;;;16.65;72.18
10261;BME280;5175;42.606;23.388;2022-09-03T03:21:56;93806.72;;;16.70;67.87
10261;BME280;5175;42.606;23.388;2022-09-03T03:24:24;93795.28;;;16.82;69.76
10261;BME280;5175;42.606;23.388;2022-09-03T03:26:54;93792.94;;;16.89;71.58
10261;BME280;5175;42.606;23.388;2022-09-03T03:29:22;93796.41;;;16.98;73.00
10261;BME280;5175;42.606;23.388;2022-09-03T03:31:49;93786.91;;;17.01;72.35
10261;BME280;5175;42.606;23.388;2022-09-03T03:34:16;93788.16;;;17.03;74.83
10261;BME280;5175;42.606;23.388;2022-09-03T03:36:43;93827.03;;;17.11;79.18
10261;BME280;5175;42.606;23.388;2022-09-03T03:39:10;93794.84;;;16.97;76.69
10261;BME280;5175;42.606;23.388;2022-09-03T03:41:38;93800.06;;;16.85;69.37
10261;BME280;5175;42.606;23.388;2022-09-03T03:44:06;93804.00;;;16.62;67.20
10261;BME280;5175;42.606;23.388;2022-09-03T03:46:35;93803.53;;;16.77;68.30
10261;BME280;5175;42.606;23.388;2022-09-03T03:49:02;93745.47;;;16.37;68.13
10261;BME280;5175;42.606;23.388;2022-09-03T03:51:31;93800.69;;;16.82;72.78
10261;BME280;5175;42.606;23.388;2022-09-03T03:53:58;93789.91;;;16.73;72.07
10261;BME280;5175;42.606;23.388;2022-09-03T03:56:25;93794.03;;;16.71;71.96
10261;BME280;5175;42.606;23.388;2022-09-03T03:58:54;93801.00;;;16.63;69.97
10261;BME280;5175;42.606;23.388;2022-09-03T04:01:23;93802.28;;;16.66;71.93
10261;BME280;5175;42.606;23.388;2022-09-03T04:03:51;93788.09;;;16.52;69.70
10261;BME280;5175;42.606;23.388;2022-09-03T04:06:19;93802.16;;;16.32;68.41
10261;BME280;5175;42.606;23.388;2022-09-03T04:08:47;93812.41;;;16.77;75.02
10261;BME280;5175;42.606;23.388;2022-09-03T04:11:15;93807.50;;;16.71;74.78
10261;BME280;5175;42.606;23.388;2022-09-03T04:13:43;93803.69;;;16.55;68.69
10261;BME280;5175;42.606;23.388;2022-09-03T04:16:14;93805.91;;;16.61;73.46
10261;BME280;5175;42.606;23.388;2022-09-03T04:18:42;93800.00;;;16.51;72.33
10261;BME280;5175;42.606;23.388;2022-09-03T04:21:10;93742.88;;;16.06;71.88
10261;BME280;5175;42.606;23.388;2022-09-03T04:23:39;93806.75;;;16.22;71.35
10261;BME280;5175;42.606;23.388;2022-09-03T04:26:08;93801.00;;;16.15;66.02
10261;BME280;5175;42.606;23.388;2022-09-03T04:28:35;93808.03;;;16.25;69.02
10261;BME280;5175;42.606;23.388;2022-09-03T04:31:06;93797.41;;;16.20;69.15
10261;BME280;5175;42.606;23.388;2022-09-03T04:33:36;93797.69;;;16.18;64.10
10261;BME280;5175;42.606;23.388;2022-09-03T04:36:05;93817.47;;;16.14;62.12
10261;BME280;5175;42.606;23.388;2022-09-03T04:38:32;93806.09;;;16.17;63.55
10261;BME280;5175;42.606;23.388;2022-09-03T04:40:59;93816.53;;;16.10;64.45
10261;BME280;5175;42.606;23.388;2022-09-03T04:43:26;93823.53;;;16.28;63.21
10261;BME280;5175;42.606;23.388;2022-09-03T04:45:57;93827.25;;;16.41;66.86
10261;BME280;5175;42.606;23.388;2022-09-03T04:48:25;93825.31;;;16.41;68.99
10261;BME280;5175;42.606;23.388;2022-09-03T04:50:53;93836.00;;;16.55;67.28
10261;BME280;5175;42.606;23.388;2022-09-03T04:53:21;93834.28;;;16.67;69.93
10261;BME280;5175;42.606;23.388;2022-09-03T04:55:48;93838.09;;;16.75;69.59
10261;BME280;5175;42.606;23.388;2022-09-03T04:58:15;93831.13;;;16.74;74.04
10261;BME280;5175;42.606;23.388;2022-09-03T05:00:42;93835.41;;;16.75;74.52
10261;BME280;5175;42.606;23.388;2022-09-03T05:03:09;93850.28;;;16.72;71.35
10261;BME280;5175;42.606;23.388;2022-09-03T05:05:36;93860.28;;;16.63;69.26
10261;BME280;5175;42.606;23.388;2022-09-03T05:08:05;93854.97;;;16.50;67.69
10261;BME280;5175;42.606;23.388;2022-09-03T05:10:32;93860.03;;;16.51;69.66
10261;BME280;5175;42.606;23.388;2022-09-03T05:13:00;93859.22;;;16.42;72.67
10261;BME280;5175;42.606;23.388;2022-09-03T05:15:28;93856.06;;;16.40;68.35
10261;BME280;5175;42.606;23.388;2022-09-03T05:17:56;93858.00;;;16.48;72.77
10261;BME280;5175;42.606;23.388;2022-09-03T05:20:23;93854.06;;;16.54;72.46
10261;BME280;5175;42.606;23.388;2022-09-03T05:22:51;93858.84;;;16.26;73.65
10261;BME280;5175;42.606;23.388;2022-09-03T05:25:19;93855.88;;;16.37;68.86
10261;BME280;5175;42.606;23.388;2022-09-03T05:27:46;93858.75;;;16.40;66.70
10261;BME280;5175;42.606;23.388;2022-09-03T05:30:13;93845.72;;;16.34;69.32
10261;BME280;5175;42.606;23.388;2022-09-03T05:32:40;93856.38;;;16.47;71.63
10261;BME280;5175;42.606;23.388;2022-09-03T05:35:07;93860.25;;;16.55;73.31
10261;BME280;5175;42.606;23.388;2022-09-03T05:37:35;93864.06;;;16.62;72.74
10261;BME280;5175;42.606;23.388;2022-09-03T05:40:02;93866.16;;;16.74;74.98
10261;BME280;5175;42.606;23.388;2022-09-03T05:42:31;93873.28;;;16.70;73.06
10261;BME280;5175;42.606;23.388;2022-09-03T05:45:05;93881.97;;;16.67;73.91
10261;BME280;5175;42.606;23.388;2022-09-03T05:47:36;93867.78;;;16.44;72.20
10261;BME280;5175;42.606;23.388;2022-09-03T05:50:07;93870.34;;;16.49;72.55
10261;BME280;5175;42.606;23.388;2022-09-03T05:52:35;93872.22;;;16.49;70.58
10261;BME280;5175;42.606;23.388;2022-09-03T05:55:03;93881.47;;;16.56;74.74
10261;BME280;5175;42.606;23.388;2022-09-03T05:57:31;93891.16;;;16.57;75.29
10261;BME280;5175;42.606;23.388;2022-09-03T05:59:58;93885.47;;;16.67;79.00
10261;BME280;5175;42.606;23.388;2022-09-03T06:02:25;93884.53;;;16.63;76.31
10261;BME280;5175;42.606;23.388;2022-09-03T06:04:52;93895.44;;;16.67;79.44
10261;BME280;5175;42.606;23.388;2022-09-03T06:07:20;93886.97;;;16.51;75.19
10261;BME280;5175;42.606;23.388;2022-09-03T06:09:47;93893.41;;;16.64;74.25
10261;BME280;5175;42.606;23.388;2022-09-03T06:12:14;93897.25;;;16.88;74.04
10261;BME280;5175;42.606;23.388;2022-09-03T06:14:42;93888.00;;;16.72;77.21
10261;BME280;5175;42.606;23.388;2022-09-03T06:17:09;93895.47;;;16.75;79.23
10261;BME280;5175;42.606;23.388;2022-09-03T06:19:37;93868.50;;;16.67;78.19
10261;BME280;5175;42.606;23.388;2022-09-03T06:22:04;93899.94;;;16.88;78.51
10261;BME280;5175;42.606;23.388;2022-09-03T06:24:31;93886.59;;;16.75;80.05
10261;BME280;5175;42.606;23.388;2022-09-03T06:26:58;93887.41;;;16.92;78.93
10261;BME280;5175;42.606;23.388;2022-09-03T06:29:25;93888.38;;;17.05;79.75
10261;BME280;5175;42.606;23.388;2022-09-03T06:31:54;93898.56;;;17.17;83.12
10261;BME280;5175;42.606;23.388;2022-09-03T06:34:21;93900.63;;;17.11;84.50
10261;BME280;5175;42.606;23.388;2022-09-03T06:36:49;93899.16;;;17.05;81.38
10261;BME280;5175;42.606;23.388;2022-09-03T06:39:17;93906.59;;;16.91;79.34
10261;BME280;5175;42.606;23.388;2022-09-03T06:41:43;93905.84;;;16.99;78.51
10261;BME280;5175;42.606;23.388;2022-09-03T06:44:12;93913.94;;;17.16;82.72
10261;BME280;5175;42.606;23.388;2022-09-03T06:46:40;93883.63;;;17.11;78.30
10261;BME280;5175;42.606;23.388;2022-09-03T06:49:10;93894.59;;;17.23;82.48
10261;BME280;5175;42.606;23.388;2022-09-03T06:51:37;93905.41;;;17.66;81.27
10261;BME280;5175;42.606;23.388;2022-09-03T06:54:05;93904.28;;;17.75;87.28
10261;BME280;5175;42.606;23.388;2022-09-03T06:56:33;93921.75;;;17.78;85.24
10261;BME280;5175;42.606;23.388;2022-09-03T06:59:04;93908.59;;;17.76;85.73
10261;BME280;5175;42.606;23.388;2022-09-03T07:01:32;93909.81;;;17.87;79.08
10261;BME280;5175;42.606;23.388;2022-09-03T07:04:00;93906.31;;;18.04;82.43
10261;BME280;5175;42.606;23.388;2022-09-03T07:06:30;93910.25;;;18.15;83.26
10261;BME280;5175;42.606;23.388;2022-09-03T07:08:58;93917.19;;;18.33;87.36
10261;BME280;5175;42.606;23.388;2022-09-03T07:11:26;93911.75;;;18.42;88.44
10261;BME280;5175;42.606;23.388;2022-09-03T07:13:56;93926.97;;;18.55;93.10
10261;BME280;5175;42.606;23.388;2022-09-03T07:16:25;93902.34;;;18.56;88.38
10261;BME280;5175;42.606;23.388;2022-09-03T07:18:53;93912.25;;;18.82;90.31
10261;BME280;5175;42.606;23.388;2022-09-03T07:21:21;93926.84;;;18.89;91.89
10261;BME280;5175;42.606;23.388;2022-09-03T07:23:52;93925.13;;;18.85;91.22
10261;BME280;5175;42.606;23.388;2022-09-03T07:26:21;93926.13;;;18.71;92.94
10261;BME280;5175;42.606;23.388;2022-09-03T07:28:49;93926.50;;;18.61;91.11
10261;BME280;5175;42.606;23.388;2022-09-03T07:31:18;93923.19;;;18.85;89.62
10261;BME280;5175;42.606;23.388;2022-09-03T07:33:51;93901.09;;;18.54;92.07
10261;BME280;5175;42.606;23.388;2022-09-03T07:36:20;93941.56;;;18.71;92.78
10261;BME280;5175;42.606;23.388;2022-09-03T07:38:48;93942.56;;;18.49;87.67
10261;BME280;5175;42.606;23.388;2022-09-03T07:41:16;93945.06;;;17.99;88.04
10261;BME280;5175;42.606;23.388;2022-09-03T07:43:44;93947.25;;;18.23;83.82
10261;BME280;5175;42.606;23.388;2022-09-03T07:46:13;93942.16;;;18.30;87.70
10261;BME280;5175;42.606;23.388;2022-09-03T07:48:41;93948.19;;;18.27;90.87
10261;BME280;5175;42.606;23.388;2022-09-03T07:51:08;93946.94;;;18.25;90.69
10261;BME280;5175;42.606;23.388;2022-09-03T07:53:35;93947.69;;;18.51;89.02
10261;BME280;5175;42.606;23.388;2022-09-03T07:56:03;93945.44;;;18.53;89.29
10261;BME280;5175;42.606;23.388;2022-09-03T07:58:32;93951.00;;;18.39;90.07
10261;BME280;5175;42.606;23.388;2022-09-03T08:01:03;93955.72;;;18.68;91.54
10261;BME280;5175;42.606;23.388;2022-09-03T08:03:32;93952.44;;;18.92;92.02
10261;BME280;5175;42.606;23.388;2022-09-03T08:06:00;93949.66;;;19.00;91.81
10261;BME280;5175;42.606;23.388;2022-09-03T08:08:28;93947.81;;;18.92;93.57
10261;BME280;5175;42.606;23.388;2022-09-03T08:11:02;93950.38;;;18.89;92.43
10261;BME280;5175;42.606;23.388;2022-09-03T08:13:29;93954.44;;;19.03;90.93
10261;BME280;5175;42.606;23.388;2022-09-03T08:15:59;93959.16;;;19.15;93.45
10261;BME280;5175;42.606;23.388;2022-09-03T08:18:26;93962.88;;;19.31;94.61
10261;BME280;5175;42.606;23.388;2022-09-03T08:21:03;93958.19;;;19.49;93.62
10261;BME280;5175;42.606;23.388;2022-09-03T08:23:31;93962.78;;;19.69;95.12
10261;BME280;5175;42.606;23.388;2022-09-03T08:25:58;93967.41;;;19.68;95.29
10261;BME280;5175;42.606;23.388;2022-09-03T08:28:25;93962.06;;;19.80;95.07
10261;BME280;5175;42.606;23.388;2022-09-03T08:30:52;93955.53;;;19.81;94.88
10261;BME280;5175;42.606;23.388;2022-09-03T08:33:21;93965.50;;;19.69;94.18
10261;BME280;5175;42.606;23.388;2022-09-03T08:36:03;93966.41;;;19.93;95.15
10261;BME280;5175;42.606;23.388;2022-09-03T08:38:31;93961.19;;;19.88;95.06
10261;BME280;5175;42.606;23.388;2022-09-03T08:41:06;93967.53;;;20.13;95.31
10261;BME280;5175;42.606;23.388;2022-09-03T08:46:25;93951.66;;;20.24;94.80
10261;BME280;5175;42.606;23.388;2022-09-03T08:48:59;93953.06;;;20.42;94.61
10261;BME280;5175;42.606;23.388;2022-09-03T08:51:27;93957.00;;;20.32;94.40
10261;BME280;5175;42.606;23.388;2022-09-03T08:53:54;93961.53;;;20.40;94.38
10261;BME280;5175;42.606;23.388;2022-09-03T08:56:25;93957.06;;;20.56;94.81
10261;BME280;5175;42.606;23.388;2022-09-03T08:58:53;93968.41;;;20.38;94.43
10261;BME280;5175;42.606;23.388;2022-09-03T09:01:29;93962.44;;;20.44;94.66
10261;BME280;5175;42.606;23.388;2022-09-03T09:04:06;93974.75;;;20.42;93.49
10261;BME280;5175;42.606;23.388;2022-09-03T09:06:41;93902.81;;;20.12;94.45
10261;BME280;5175;42.606;23.388;2022-09-03T09:09:26;93950.19;;;20.26;93.71
10261;BME280;5175;42.606;23.388;2022-09-03T09:12:02;93965.19;;;20.56;94.68
10261;BME280;5175;42.606;23.388;2022-09-03T09:14:35;93971.53;;;20.60;94.46
10261;BME280;5175;42.606;23.388;2022-09-03T09:17:18;93989.19;;;20.91;93.33
10261;BME280;5175;42.606;23.388;2022-09-03T09:19:57;93978.03;;;21.04;92.79
10261;BME280;5175;42.606;23.388;2022-09-03T09:22:31;93968.81;;;20.73;92.74
10261;BME280;5175;42.606;23.388;2022-09-03T09:25:03;93968.81;;;20.73;93.34
10261;BME280;5175;42.606;23.388;2022-09-03T09:27:33;93966.00;;;20.69;94.15
10261;BME280;5175;42.606;23.388;2022-09-03T09:30:03;93975.19;;;20.89;93.98
10261;BME280;5175;42.606;23.388;2022-09-03T09:32:30;93987.16;;;20.88;92.76
10261;BME280;5175;42.606;23.388;2022-09-03T09:35:08;93980.91;;;20.75;93.58
10261;BME280;5175;42.606;23.388;2022-09-03T09:37:46;93979.22;;;20.71;92.51
10261;BME280;5175;42.606;23.388;2022-09-03T09:40:22;93974.56;;;20.59;93.87
10261;BME280;5175;42.606;23.388;2022-09-03T09:42:50;93961.69;;;20.68;94.18
10261;BME280;5175;42.606;23.388;2022-09-03T09:45:23;93972.47;;;20.77;93.94
10261;BME280;5175;42.606;23.388;2022-09-03T09:47:53;93975.28;;;20.80;93.96
10261;BME280;5175;42.606;23.388;2022-09-03T09:50:23;93969.81;;;20.56;94.08
10261;BME280;5175;42.606;23.388;2022-09-03T09:52:59;93985.81;;;20.82;92.88
10261;BME280;5175;42.606;23.388;2022-09-03T09:55:27;93994.03;;;20.85;92.93
10261;BME280;5175;42.606;23.388;2022-09-03T09:58:04;93982.09;;;20.41;92.39
10261;BME280;5175;42.606;23.388;2022-09-03T10:00:31;93997.34;;;20.46;93.15
10261;BME280;5175;42.606;23.388;2022-09-03T10:02:59;93990.75;;;20.14;93.58
10261;BME280;5175;42.606;23.388;2022-09-03T10:05:30;93982.38;;;20.28;93.71
10261;BME280;5175;42.606;23.388;2022-09-03T10:07:59;93992.75;;;20.58;93.62
10261;BME280;5175;42.606;23.388;2022-09-03T10:10:29;93988.59;;;20.28;93.50
10261;BME280;5175;42.606;23.388;2022-09-03T10:13:02;93990.31;;;20.12;93.46
10261;BME280;5175;42.606;23.388;2022-09-03T10:15:38;93990.97;;;20.30;93.20
10261;BME280;5175;42.606;23.388;2022-09-03T10:18:10;93984.88;;;20.33;93.34
10261;BME280;5175;42.606;23.388;2022-09-03T10:20:44;93980.31;;;20.57;93.40
10261;BME280;5175;42.606;23.388;2022-09-03T10:23:14;93975.09;;;20.97;93.77
10261;BME280;5175;42.606;23.388;2022-09-03T10:25:53;93981.22;;;21.06;93.31
10261;BME280;5175;42.606;23.388;2022-09-03T10:28:25;93985.06;;;21.17;92.66
10261;BME280;5175;42.606;23.388;2022-09-03T10:31:13;93984.50;;;21.36;92.59
10261;BME280;5175;42.606;23.388;2022-09-03T10:33:47;93979.84;;;21.37;93.00
10261;BME280;5175;42.606;23.388;2022-09-03T10:36:21;93986.00;;;21.98;92.85
10261;BME280;5175;42.606;23.388;2022-09-03T10:38:53;93989.47;;;22.38;88.50
10261;BME280;5175;42.606;23.388;2022-09-03T10:41:37;93987.75;;;22.18;86.37
10261;BME280;5175;42.606;23.388;2022-09-03T10:44:19;93979.56;;;22.45;88.75
10261;BME280;5175;42.606;23.388;2022-09-03T10:46:56;93994.81;;;22.78;91.01
10261;BME280;5175;42.606;23.388;2022-09-03T10:49:43;93996.06;;;22.96;81.54
10261;BME280;5175;42.606;23.388;2022-09-03T10:52:22;93991.34;;;22.22;86.44
10261;BME280;5175;42.606;23.388;2022-09-03T10:57:47;93990.00;;;22.43;90.57
10261;BME280;5175;42.606;23.388;2022-09-03T11:00:15;94000.19;;;22.47;89.12
10261;BME280;5175;42.606;23.388;2022-09-03T11:02:58;93953.69;;;22.36;88.01
10261;BME280;5175;42.606;23.388;2022-09-03T11:05:34;93990.00;;;22.71;86.53
10261;BME280;5175;42.606;23.388;2022-09-03T11:08:08;93990.91;;;22.91;88.30
10261;BME280;5175;42.606;23.388;2022-09-03T11:10:40;93985.19;;;23.12;88.01
10261;BME280;5175;42.606;23.388;2022-09-03T11:13:12;93992.66;;;23.15;84.82
10261;BME280;5175;42.606;23.388;2022-09-03T11:15:43;93984.88;;;23.13;85.04
10261;BME280;5175;42.606;23.388;2022-09-03T11:18:17;93995.50;;;23.18;79.97
10261;BME280;5175;42.606;23.388;2022-09-03T11:20:47;93982.41;;;23.24;83.42
10261;BME280;5175;42.606;23.388;2022-09-03T11:23:17;93993.88;;;23.33;84.00
10261;BME280;5175;42.606;23.388;2022-09-03T11:25:49;93999.69;;;23.16;80.44
10261;BME280;5175;42.606;23.388;2022-09-03T11:28:26;93991.16;;;23.17;83.08
10261;BME280;5175;42.606;23.388;2022-09-03T11:31:10;93984.75;;;22.94;81.07
10261;BME280;5175;42.606;23.388;2022-09-03T11:33:40;93988.09;;;22.72;84.65
10261;BME280;5175;42.606;23.388;2022-09-03T11:36:09;93984.22;;;22.88;86.40
10261;BME280;5175;42.606;23.388;2022-09-03T11:38:38;93970.19;;;22.86;82.27
10261;BME280;5175;42.606;23.388;2022-09-03T11:41:11;93942.13;;;22.55;82.19
10261;BME280;5175;42.606;23.388;2022-09-03T11:43:40;93988.09;;;22.72;86.07
10261;BME280;5175;42.606;23.388;2022-09-03T11:46:10;93962.72;;;22.40;84.67
10261;BME280;5175;42.606;23.388;2022-09-03T11:48:41;93991.41;;;22.81;85.32
10261;BME280;5175;42.606;23.388;2022-09-03T11:51:20;93984.94;;;23.17;83.69
10261;BME280;5175;42.606;23.388;2022-09-03T11:53:56;93988.81;;;23.47;79.74
10261;BME280;5175;42.606;23.388;2022-09-03T11:56:23;93991.72;;;23.23;76.38
10261;BME280;5175;42.606;23.388;2022-09-03T11:59:03;93987.97;;;22.40;79.22
10261;BME280;5175;42.606;23.388;2022-09-03T12:01:31;93979.75;;;22.65;84.10
10261;BME280;5175;42.606;23.388;2022-09-03T12:04:00;93985.56;;;23.10;83.90
10261;BME280;5175;42.606;23.388;2022-09-03T12:06:55;93986.50;;;23.64;78.47
10261;BME280;5175;42.606;23.388;2022-09-03T12:09:54;93976.69;;;24.14;76.40
10261;BME280;5175;42.606;23.388;2022-09-03T12:12:42;93976.41;;;24.38;74.75
10261;BME280;5175;42.606;23.388;2022-09-03T12:15:19;93991.41;;;23.94;72.95
10261;BME280;5175;42.606;23.388;2022-09-03T12:17:52;93987.97;;;24.12;74.48
10261;BME280;5175;42.606;23.388;2022-09-03T12:20:36;93974.63;;;23.73;72.45
10261;BME280;5175;42.606;23.388;2022-09-03T12:23:03;93974.53;;;23.69;76.28
10261;BME280;5175;42.606;23.388;2022-09-03T12:25:31;93969.19;;;24.26;74.75
10261;BME280;5175;42.606;23.388;2022-09-03T12:28:00;93964.06;;;24.25;72.93
10261;BME280;5175;42.606;23.388;2022-09-03T12:30:28;93973.09;;;24.48;72.01
10261;BME280;5175;42.606;23.388;2022-09-03T12:33:02;93976.81;;;24.78;72.06
10261;BME280;5175;42.606;23.388;2022-09-03T12:35:30;93971.53;;;25.12;71.42
10261;BME280;5175;42.606;23.388;2022-09-03T12:37:57;93975.34;;;25.52;68.97
10261;BME280;5175;42.606;23.388;2022-09-03T12:40:25;93976.28;;;25.60;66.84
10261;BME280;5175;42.606;23.388;2022-09-03T12:42:54;93968.00;;;25.57;66.08
10261;BME280;5175;42.606;23.388;2022-09-03T12:45:23;93962.59;;;25.60;66.08
10261;BME280;5175;42.606;23.388;2022-09-03T12:47:51;93969.41;;;25.24;64.37
10261;BME280;5175;42.606;23.388;2022-09-03T12:50:20;93936.38;;;25.33;66.66
10261;BME280;5175;42.606;23.388;2022-09-03T12:52:49;93958.84;;;25.72;62.86
10261;BME280;5175;42.606;23.388;2022-09-03T12:55:27;93958.47;;;24.18;66.85
10261;BME280;5175;42.606;23.388;2022-09-03T12:58:03;93952.13;;;24.52;72.02
10261;BME280;5175;42.606;23.388;2022-09-03T13:00:33;93947.66;;;24.63;67.81
10261;BME280;5175;42.606;23.388;2022-09-03T13:03:03;93942.13;;;25.02;70.60
10261;BME280;5175;42.606;23.388;2022-09-03T13:05:33;93940.59;;;25.27;68.01
10261;BME280;5175;42.606;23.388;2022-09-03T13:08:03;93940.69;;;25.34;67.40
10261;BME280;5175;42.606;23.388;2022-09-03T13:10:34;93943.09;;;25.62;65.29
10261;BME280;5175;42.606;23.388;2022-09-03T13:13:17;93942.19;;;25.80;65.88
10261;BME280;5175;42.606;23.388;2022-09-03T13:15:56;93930.41;;;25.24;65.68
10261;BME280;5175;42.606;23.388;2022-09-03T13:18:30;93927.34;;;25.52;67.14
10261;BME280;5175;42.606;23.388;2022-09-03T13:21:09;93927.41;;;25.55;66.90
10261;BME280;5175;42.606;23.388;2022-09-03T13:26:41;93924.94;;;26.36;64.91
10261;BME280;5175;42.606;23.388;2022-09-03T13:29:25;93928.72;;;26.61;63.15
10261;BME280;5175;42.606;23.388;2022-09-03T13:34:46;93924.44;;;26.60;64.18
10261;BME280;5175;42.606;23.388;2022-09-03T13:37:22;93929.56;;;26.02;62.98